sensor_id;sensor_type;location;lat;lon;timestamp;P1;durP1;ratioP1;P2;durP2;ratioP2
69754;SDS011;57023;52.218;5.158;2023-08-30T00:02:14;9.73;;;7.15;;
69754;SDS011;57023;52.218;5.158;2023-08-30T00:04:41;10.75;;;6.75;;
69754;SDS011;57023;52.218;5.158;2023-08-30T00:07:08;11.02;;;6.43;;
69754;SDS011;57023;52.218;5.158;2023-08-30T00:09:33;9.68;;;6.55;;
69754;SDS011;57023;52.218;5.158;2023-08-30T00:12:01;12.88;;;6.80;;
69754;SDS011;57023;52.218;5.158;2023-08-30T00:14:26;10.75;;;6.88;;
69754;SDS011;57023;52.218;5.158;2023-08-30T00:16:51;11.13;;;6.32;;
69754;SDS011;57023;52.218;5.158;2023-08-30T00:19:17;10.73;;;6.80;;
69754;SDS011;57023;52.218;5.158;2023-08-30T00:21:42;10.10;;;6.75;;
69754;SDS011;57023;52.218;5.158;2023-08-30T00:24:09;11.07;;;7.03;;
69754;SDS011;57023;52.218;5.158;2023-08-30T00:26:34;11.88;;;7.03;;
69754;SDS011;57023;52.218;5.158;2023-08-30T00:29:00;9.63;;;6.82;;
69754;SDS011;57023;52.218;5.158;2023-08-30T00:31:25;10.90;;;7.45;;
69754;SDS011;57023;52.218;5.158;2023-08-30T00:33:50;11.00;;;7.13;;
69754;SDS011;57023;52.218;5.158;2023-08-30T00:36:16;10.18;;;7.00;;
69754;SDS011;57023;52.218;5.158;2023-08-30T00:38:43;11.02;;;7.22;;
69754;SDS011;57023;52.218;5.158;2023-08-30T00:41:08;10.40;;;7.22;;
69754;SDS011;57023;52.218;5.158;2023-08-30T00:43:33;9.77;;;6.85;;
69754;SDS011;57023;52.218;5.158;2023-08-30T00:45:59;12.05;;;7.78;;
69754;SDS011;57023;52.218;5.158;2023-08-30T00:48:25;10.82;;;7.28;;
69754;SDS011;57023;52.218;5.158;2023-08-30T00:50:50;9.85;;;7.38;;
69754;SDS011;57023;52.218;5.158;2023-08-30T00:53:15;10.60;;;7.40;;
69754;SDS011;57023;52.218;5.158;2023-08-30T00:55:42;12.98;;;8.30;;
69754;SDS011;57023;52.218;5.158;2023-08-30T00:58:07;11.57;;;7.80;;
69754;SDS011;57023;52.218;5.158;2023-08-30T01:00:33;12.63;;;8.05;;
69754;SDS011;57023;52.218;5.158;2023-08-30T01:02:58;12.23;;;8.18;;
69754;SDS011;57023;52.218;5.158;2023-08-30T01:05:26;11.65;;;8.38;;
69754;SDS011;57023;52.218;5.158;2023-08-30T01:07:52;10.93;;;7.78;;
69754;SDS011;57023;52.218;5.158;2023-08-30T01:10:22;12.27;;;7.82;;
69754;SDS011;57023;52.218;5.158;2023-08-30T01:13:09;11.23;;;7.68;;
69754;SDS011;57023;52.218;5.158;2023-08-30T01:15:38;11.32;;;7.88;;
69754;SDS011;57023;52.218;5.158;2023-08-30T01:18:04;14.38;;;7.95;;
69754;SDS011;57023;52.218;5.158;2023-08-30T01:20:30;12.55;;;7.43;;
69754;SDS011;57023;52.218;5.158;2023-08-30T01:25:57;11.43;;;7.15;;
69754;SDS011;57023;52.218;5.158;2023-08-30T01:28:29;11.48;;;7.70;;
69754;SDS011;57023;52.218;5.158;2023-08-30T01:30:55;12.82;;;8.15;;
69754;SDS011;57023;52.218;5.158;2023-08-30T01:35:48;12.15;;;7.85;;
69754;SDS011;57023;52.218;5.158;2023-08-30T01:38:13;12.40;;;8.07;;
69754;SDS011;57023;52.218;5.158;2023-08-30T01:40:40;12.88;;;7.63;;
69754;SDS011;57023;52.218;5.158;2023-08-30T01:43:07;11.43;;;7.47;;
69754;SDS011;57023;52.218;5.158;2023-08-30T01:45:40;11.53;;;7.90;;
69754;SDS011;57023;52.218;5.158;2023-08-30T01:48:08;11.80;;;7.07;;
69754;SDS011;57023;52.218;5.158;2023-08-30T01:50:35;13.55;;;7.47;;
69754;SDS011;57023;52.218;5.158;2023-08-30T01:53:00;11.07;;;6.88;;
69754;SDS011;57023;52.218;5.158;2023-08-30T01:55:27;10.97;;;7.47;;
69754;SDS011;57023;52.218;5.158;2023-08-30T01:57:53;12.73;;;7.20;;
69754;SDS011;57023;52.218;5.158;2023-08-30T02:00:19;10.50;;;6.80;;
69754;SDS011;57023;52.218;5.158;2023-08-30T02:02:44;11.90;;;7.35;;
69754;SDS011;57023;52.218;5.158;2023-08-30T02:05:10;12.20;;;7.37;;
69754;SDS011;57023;52.218;5.158;2023-08-30T02:07:43;10.05;;;6.95;;
69754;SDS011;57023;52.218;5.158;2023-08-30T02:10:15;13.00;;;7.65;;
69754;SDS011;57023;52.218;5.158;2023-08-30T02:12:46;12.35;;;7.47;;
69754;SDS011;57023;52.218;5.158;2023-08-30T02:15:12;12.43;;;7.45;;
69754;SDS011;57023;52.218;5.158;2023-08-30T02:17:38;11.48;;;7.50;;
69754;SDS011;57023;52.218;5.158;2023-08-30T02:20:04;11.60;;;7.45;;
69754;SDS011;57023;52.218;5.158;2023-08-30T02:22:30;11.07;;;7.88;;
69754;SDS011;57023;52.218;5.158;2023-08-30T02:24:56;13.77;;;8.38;;
69754;SDS011;57023;52.218;5.158;2023-08-30T02:27:22;12.30;;;8.40;;
69754;SDS011;57023;52.218;5.158;2023-08-30T02:29:48;11.63;;;7.80;;
69754;SDS011;57023;52.218;5.158;2023-08-30T02:32:13;12.98;;;8.38;;
69754;SDS011;57023;52.218;5.158;2023-08-30T02:34:40;12.93;;;7.90;;
69754;SDS011;57023;52.218;5.158;2023-08-30T02:37:05;13.40;;;8.00;;
69754;SDS011;57023;52.218;5.158;2023-08-30T02:39:30;11.60;;;7.90;;
69754;SDS011;57023;52.218;5.158;2023-08-30T02:41:56;13.73;;;7.88;;
69754;SDS011;57023;52.218;5.158;2023-08-30T02:44:27;12.55;;;8.07;;
69754;SDS011;57023;52.218;5.158;2023-08-30T02:46:52;12.23;;;7.63;;
69754;SDS011;57023;52.218;5.158;2023-08-30T02:49:18;12.80;;;7.85;;
69754;SDS011;57023;52.218;5.158;2023-08-30T02:51:43;11.88;;;7.55;;
69754;SDS011;57023;52.218;5.158;2023-08-30T02:54:08;13.65;;;8.05;;
69754;SDS011;57023;52.218;5.158;2023-08-30T02:56:34;13.88;;;8.18;;
69754;SDS011;57023;52.218;5.158;2023-08-30T02:58:59;13.15;;;8.00;;
69754;SDS011;57023;52.218;5.158;2023-08-30T03:01:24;13.80;;;8.05;;
69754;SDS011;57023;52.218;5.158;2023-08-30T03:03:50;14.23;;;8.45;;
69754;SDS011;57023;52.218;5.158;2023-08-30T03:06:15;14.77;;;8.82;;
69754;SDS011;57023;52.218;5.158;2023-08-30T03:08:40;13.63;;;7.97;;
69754;SDS011;57023;52.218;5.158;2023-08-30T03:11:09;12.10;;;8.38;;
69754;SDS011;57023;52.218;5.158;2023-08-30T03:13:36;14.93;;;8.95;;
69754;SDS011;57023;52.218;5.158;2023-08-30T03:16:02;13.45;;;8.68;;
69754;SDS011;57023;52.218;5.158;2023-08-30T03:18:37;14.02;;;9.13;;
69754;SDS011;57023;52.218;5.158;2023-08-30T03:21:02;15.77;;;9.45;;
69754;SDS011;57023;52.218;5.158;2023-08-30T03:23:28;14.27;;;8.70;;
69754;SDS011;57023;52.218;5.158;2023-08-30T03:25:57;16.42;;;8.68;;
69754;SDS011;57023;52.218;5.158;2023-08-30T03:28:23;15.32;;;9.02;;
69754;SDS011;57023;52.218;5.158;2023-08-30T03:30:48;14.90;;;9.30;;
69754;SDS011;57023;52.218;5.158;2023-08-30T03:33:13;15.27;;;9.70;;
69754;SDS011;57023;52.218;5.158;2023-08-30T03:35:39;17.45;;;10.00;;
69754;SDS011;57023;52.218;5.158;2023-08-30T03:38:04;16.85;;;9.57;;
69754;SDS011;57023;52.218;5.158;2023-08-30T03:40:30;14.27;;;9.35;;
69754;SDS011;57023;52.218;5.158;2023-08-30T03:42:55;15.88;;;9.82;;
69754;SDS011;57023;52.218;5.158;2023-08-30T03:45:21;15.80;;;10.00;;
69754;SDS011;57023;52.218;5.158;2023-08-30T03:47:46;14.73;;;9.70;;
69754;SDS011;57023;52.218;5.158;2023-08-30T03:50:11;18.25;;;10.38;;
69754;SDS011;57023;52.218;5.158;2023-08-30T03:52:37;14.65;;;9.65;;
69754;SDS011;57023;52.218;5.158;2023-08-30T03:55:02;15.13;;;9.65;;
69754;SDS011;57023;52.218;5.158;2023-08-30T03:57:28;16.10;;;9.82;;
69754;SDS011;57023;52.218;5.158;2023-08-30T03:59:53;16.58;;;10.27;;
69754;SDS011;57023;52.218;5.158;2023-08-30T04:02:18;18.45;;;9.77;;
69754;SDS011;57023;52.218;5.158;2023-08-30T04:04:46;16.55;;;10.25;;
69754;SDS011;57023;52.218;5.158;2023-08-30T04:07:12;16.30;;;10.18;;
69754;SDS011;57023;52.218;5.158;2023-08-30T04:09:38;16.13;;;10.18;;
69754;SDS011;57023;52.218;5.158;2023-08-30T04:12:03;17.58;;;9.80;;
69754;SDS011;57023;52.218;5.158;2023-08-30T04:14:30;17.48;;;10.23;;
69754;SDS011;57023;52.218;5.158;2023-08-30T04:16:55;17.08;;;10.15;;
69754;SDS011;57023;52.218;5.158;2023-08-30T04:19:20;15.75;;;10.10;;
69754;SDS011;57023;52.218;5.158;2023-08-30T04:21:46;16.42;;;9.90;;
69754;SDS011;57023;52.218;5.158;2023-08-30T04:24:11;19.83;;;10.63;;
69754;SDS011;57023;52.218;5.158;2023-08-30T04:26:36;16.33;;;11.07;;
69754;SDS011;57023;52.218;5.158;2023-08-30T04:29:02;20.48;;;10.63;;
69754;SDS011;57023;52.218;5.158;2023-08-30T04:31:28;16.40;;;10.32;;
69754;SDS011;57023;52.218;5.158;2023-08-30T04:33:53;18.25;;;11.10;;
69754;SDS011;57023;52.218;5.158;2023-08-30T04:36:20;17.00;;;10.77;;
69754;SDS011;57023;52.218;5.158;2023-08-30T04:38:46;18.65;;;11.25;;
69754;SDS011;57023;52.218;5.158;2023-08-30T04:41:11;17.20;;;11.30;;
69754;SDS011;57023;52.218;5.158;2023-08-30T04:43:36;18.13;;;11.38;;
69754;SDS011;57023;52.218;5.158;2023-08-30T04:46:02;16.73;;;11.02;;
69754;SDS011;57023;52.218;5.158;2023-08-30T04:48:27;19.30;;;11.07;;
69754;SDS011;57023;52.218;5.158;2023-08-30T04:51:02;17.90;;;11.20;;
69754;SDS011;57023;52.218;5.158;2023-08-30T04:53:28;18.95;;;11.45;;
69754;SDS011;57023;52.218;5.158;2023-08-30T04:55:54;17.13;;;11.30;;
69754;SDS011;57023;52.218;5.158;2023-08-30T04:58:19;17.27;;;11.25;;
69754;SDS011;57023;52.218;5.158;2023-08-30T05:00:45;19.83;;;11.40;;
69754;SDS011;57023;52.218;5.158;2023-08-30T05:03:10;19.35;;;10.88;;
69754;SDS011;57023;52.218;5.158;2023-08-30T05:05:35;17.25;;;11.18;;
69754;SDS011;57023;52.218;5.158;2023-08-30T05:08:01;17.65;;;11.05;;
69754;SDS011;57023;52.218;5.158;2023-08-30T05:10:27;17.20;;;11.05;;
69754;SDS011;57023;52.218;5.158;2023-08-30T05:12:52;15.80;;;10.38;;
69754;SDS011;57023;52.218;5.158;2023-08-30T05:15:18;17.73;;;11.07;;
69754;SDS011;57023;52.218;5.158;2023-08-30T05:17:43;17.13;;;10.25;;
69754;SDS011;57023;52.218;5.158;2023-08-30T05:20:09;18.15;;;10.88;;
69754;SDS011;57023;52.218;5.158;2023-08-30T05:22:34;16.15;;;10.68;;
69754;SDS011;57023;52.218;5.158;2023-08-30T05:25:00;16.42;;;10.30;;
69754;SDS011;57023;52.218;5.158;2023-08-30T05:27:26;16.20;;;9.77;;
69754;SDS011;57023;52.218;5.158;2023-08-30T05:29:52;16.50;;;10.45;;
69754;SDS011;57023;52.218;5.158;2023-08-30T05:32:17;17.55;;;10.13;;
69754;SDS011;57023;52.218;5.158;2023-08-30T05:34:42;15.82;;;9.82;;
69754;SDS011;57023;52.218;5.158;2023-08-30T05:37:08;16.23;;;10.43;;
69754;SDS011;57023;52.218;5.158;2023-08-30T05:39:34;15.85;;;10.05;;
69754;SDS011;57023;52.218;5.158;2023-08-30T05:41:59;16.23;;;9.35;;
69754;SDS011;57023;52.218;5.158;2023-08-30T05:44:25;15.15;;;9.77;;
69754;SDS011;57023;52.218;5.158;2023-08-30T05:46:50;17.33;;;10.07;;
69754;SDS011;57023;52.218;5.158;2023-08-30T05:49:15;17.20;;;10.07;;
69754;SDS011;57023;52.218;5.158;2023-08-30T05:51:41;20.05;;;10.30;;
69754;SDS011;57023;52.218;5.158;2023-08-30T05:54:06;15.77;;;9.52;;
69754;SDS011;57023;52.218;5.158;2023-08-30T05:56:32;16.05;;;9.13;;
69754;SDS011;57023;52.218;5.158;2023-08-30T05:58:57;16.55;;;9.93;;
69754;SDS011;57023;52.218;5.158;2023-08-30T06:01:22;18.50;;;10.25;;
69754;SDS011;57023;52.218;5.158;2023-08-30T06:03:48;15.95;;;9.63;;
69754;SDS011;57023;52.218;5.158;2023-08-30T06:06:13;18.63;;;10.32;;
69754;SDS011;57023;52.218;5.158;2023-08-30T06:08:40;19.87;;;9.90;;
69754;SDS011;57023;52.218;5.158;2023-08-30T06:11:05;17.73;;;10.75;;
69754;SDS011;57023;52.218;5.158;2023-08-30T06:13:30;19.05;;;10.52;;
69754;SDS011;57023;52.218;5.158;2023-08-30T06:15:56;16.83;;;10.55;;
69754;SDS011;57023;52.218;5.158;2023-08-30T06:18:21;17.85;;;9.70;;
69754;SDS011;57023;52.218;5.158;2023-08-30T06:20:46;14.90;;;9.43;;
69754;SDS011;57023;52.218;5.158;2023-08-30T06:23:13;17.90;;;11.02;;
69754;SDS011;57023;52.218;5.158;2023-08-30T06:25:38;19.65;;;11.57;;
69754;SDS011;57023;52.218;5.158;2023-08-30T06:28:04;20.05;;;11.45;;
69754;SDS011;57023;52.218;5.158;2023-08-30T06:30:30;21.10;;;12.20;;
69754;SDS011;57023;52.218;5.158;2023-08-30T06:32:55;22.80;;;11.35;;
69754;SDS011;57023;52.218;5.158;2023-08-30T06:35:24;20.48;;;11.77;;
69754;SDS011;57023;52.218;5.158;2023-08-30T06:37:49;18.83;;;11.30;;
69754;SDS011;57023;52.218;5.158;2023-08-30T06:40:14;22.13;;;12.40;;
69754;SDS011;57023;52.218;5.158;2023-08-30T06:42:40;18.95;;;11.88;;
69754;SDS011;57023;52.218;5.158;2023-08-30T06:45:05;20.50;;;12.32;;
69754;SDS011;57023;52.218;5.158;2023-08-30T06:47:31;18.70;;;11.77;;
69754;SDS011;57023;52.218;5.158;2023-08-30T06:49:57;23.52;;;12.50;;
69754;SDS011;57023;52.218;5.158;2023-08-30T06:52:22;21.50;;;12.50;;
69754;SDS011;57023;52.218;5.158;2023-08-30T06:54:48;22.80;;;12.82;;
69754;SDS011;57023;52.218;5.158;2023-08-30T06:57:13;22.08;;;12.40;;
69754;SDS011;57023;52.218;5.158;2023-08-30T06:59:38;20.02;;;11.98;;
69754;SDS011;57023;52.218;5.158;2023-08-30T07:02:04;20.13;;;12.20;;
69754;SDS011;57023;52.218;5.158;2023-08-30T07:04:29;21.85;;;12.43;;
69754;SDS011;57023;52.218;5.158;2023-08-30T07:06:55;20.80;;;12.63;;
69754;SDS011;57023;52.218;5.158;2023-08-30T07:09:20;23.45;;;13.30;;
69754;SDS011;57023;52.218;5.158;2023-08-30T07:11:47;23.17;;;12.75;;
69754;SDS011;57023;52.218;5.158;2023-08-30T07:14:12;23.88;;;13.00;;
69754;SDS011;57023;52.218;5.158;2023-08-30T07:16:39;23.20;;;12.63;;
69754;SDS011;57023;52.218;5.158;2023-08-30T07:19:05;19.95;;;11.52;;
69754;SDS011;57023;52.218;5.158;2023-08-30T07:21:30;23.27;;;11.73;;
69754;SDS011;57023;52.218;5.158;2023-08-30T07:23:56;19.98;;;12.07;;
69754;SDS011;57023;52.218;5.158;2023-08-30T07:26:21;21.70;;;12.20;;
69754;SDS011;57023;52.218;5.158;2023-08-30T07:28:46;21.55;;;11.32;;
69754;SDS011;57023;52.218;5.158;2023-08-30T07:31:12;19.77;;;11.50;;
69754;SDS011;57023;52.218;5.158;2023-08-30T07:33:43;22.50;;;11.70;;
69754;SDS011;57023;52.218;5.158;2023-08-30T07:36:08;19.45;;;10.95;;
69754;SDS011;57023;52.218;5.158;2023-08-30T07:38:34;21.77;;;12.43;;
69754;SDS011;57023;52.218;5.158;2023-08-30T07:41:00;20.60;;;11.60;;
69754;SDS011;57023;52.218;5.158;2023-08-30T07:43:25;19.13;;;11.05;;
69754;SDS011;57023;52.218;5.158;2023-08-30T07:45:51;18.88;;;11.18;;
69754;SDS011;57023;52.218;5.158;2023-08-30T07:48:16;18.30;;;11.07;;
69754;SDS011;57023;52.218;5.158;2023-08-30T07:50:41;18.70;;;10.85;;
69754;SDS011;57023;52.218;5.158;2023-08-30T07:53:07;19.92;;;10.82;;
69754;SDS011;57023;52.218;5.158;2023-08-30T07:55:32;18.52;;;11.32;;
69754;SDS011;57023;52.218;5.158;2023-08-30T07:57:57;17.83;;;11.63;;
69754;SDS011;57023;52.218;5.158;2023-08-30T08:00:23;17.27;;;10.95;;
69754;SDS011;57023;52.218;5.158;2023-08-30T08:02:51;18.55;;;11.05;;
69754;SDS011;57023;52.218;5.158;2023-08-30T08:05:16;17.73;;;10.38;;
69754;SDS011;57023;52.218;5.158;2023-08-30T08:07:42;17.00;;;10.38;;
69754;SDS011;57023;52.218;5.158;2023-08-30T08:10:08;14.85;;;8.88;;
69754;SDS011;57023;52.218;5.158;2023-08-30T08:12:34;13.77;;;8.50;;
69754;SDS011;57023;52.218;5.158;2023-08-30T08:14:59;16.35;;;9.32;;
69754;SDS011;57023;52.218;5.158;2023-08-30T08:17:25;12.48;;;8.20;;
69754;SDS011;57023;52.218;5.158;2023-08-30T08:19:50;13.18;;;7.90;;
69754;SDS011;57023;52.218;5.158;2023-08-30T08:22:15;12.60;;;7.18;;
69754;SDS011;57023;52.218;5.158;2023-08-30T08:24:41;12.73;;;7.72;;
69754;SDS011;57023;52.218;5.158;2023-08-30T08:27:06;12.30;;;7.18;;
69754;SDS011;57023;52.218;5.158;2023-08-30T08:29:31;12.00;;;7.50;;
69754;SDS011;57023;52.218;5.158;2023-08-30T08:31:59;9.85;;;6.47;;
69754;SDS011;57023;52.218;5.158;2023-08-30T08:34:25;10.73;;;7.18;;
69754;SDS011;57023;52.218;5.158;2023-08-30T08:36:50;10.57;;;6.70;;
69754;SDS011;57023;52.218;5.158;2023-08-30T08:39:15;11.38;;;7.22;;
69754;SDS011;57023;52.218;5.158;2023-08-30T08:41:42;9.90;;;6.53;;
69754;SDS011;57023;52.218;5.158;2023-08-30T08:44:08;10.23;;;6.67;;
69754;SDS011;57023;52.218;5.158;2023-08-30T08:46:35;11.88;;;7.57;;
69754;SDS011;57023;52.218;5.158;2023-08-30T08:49:11;11.45;;;7.43;;
69754;SDS011;57023;52.218;5.158;2023-08-30T08:51:38;11.43;;;7.13;;
69754;SDS011;57023;52.218;5.158;2023-08-30T08:54:04;11.30;;;7.40;;
69754;SDS011;57023;52.218;5.158;2023-08-30T08:56:30;10.20;;;6.70;;
69754;SDS011;57023;52.218;5.158;2023-08-30T08:58:57;13.65;;;7.47;;
69754;SDS011;57023;52.218;5.158;2023-08-30T09:01:26;12.57;;;7.07;;
69754;SDS011;57023;52.218;5.158;2023-08-30T09:03:51;12.38;;;8.05;;
69754;SDS011;57023;52.218;5.158;2023-08-30T09:06:20;12.57;;;7.47;;
69754;SDS011;57023;52.218;5.158;2023-08-30T09:08:46;12.23;;;8.07;;
69754;SDS011;57023;52.218;5.158;2023-08-30T09:11:11;12.95;;;8.13;;
69754;SDS011;57023;52.218;5.158;2023-08-30T09:13:37;13.25;;;8.02;;
69754;SDS011;57023;52.218;5.158;2023-08-30T09:16:02;13.15;;;7.97;;
69754;SDS011;57023;52.218;5.158;2023-08-30T09:18:27;10.38;;;7.38;;
69754;SDS011;57023;52.218;5.158;2023-08-30T09:21:04;13.48;;;8.75;;
69754;SDS011;57023;52.218;5.158;2023-08-30T09:23:30;12.60;;;8.18;;
69754;SDS011;57023;52.218;5.158;2023-08-30T09:25:55;10.65;;;7.45;;
69754;SDS011;57023;52.218;5.158;2023-08-30T09:28:20;13.10;;;7.25;;
69754;SDS011;57023;52.218;5.158;2023-08-30T09:30:49;13.73;;;8.82;;
69754;SDS011;57023;52.218;5.158;2023-08-30T09:33:15;11.82;;;8.10;;
69754;SDS011;57023;52.218;5.158;2023-08-30T09:35:44;13.07;;;8.23;;
69754;SDS011;57023;52.218;5.158;2023-08-30T09:38:15;9.43;;;5.97;;
69754;SDS011;57023;52.218;5.158;2023-08-30T09:40:42;11.90;;;7.97;;
69754;SDS011;57023;52.218;5.158;2023-08-30T09:43:14;11.02;;;7.03;;
69754;SDS011;57023;52.218;5.158;2023-08-30T09:45:43;15.27;;;9.43;;
69754;SDS011;57023;52.218;5.158;2023-08-30T09:48:09;17.40;;;9.52;;
69754;SDS011;57023;52.218;5.158;2023-08-30T09:50:35;14.43;;;9.15;;
69754;SDS011;57023;52.218;5.158;2023-08-30T09:53:07;15.63;;;9.75;;
69754;SDS011;57023;52.218;5.158;2023-08-30T09:55:34;16.05;;;10.52;;
69754;SDS011;57023;52.218;5.158;2023-08-30T09:58:01;16.77;;;11.40;;
69754;SDS011;57023;52.218;5.158;2023-08-30T10:00:29;16.98;;;11.63;;
69754;SDS011;57023;52.218;5.158;2023-08-30T10:02:54;17.83;;;12.00;;
69754;SDS011;57023;52.218;5.158;2023-08-30T10:05:20;20.35;;;13.02;;
69754;SDS011;57023;52.218;5.158;2023-08-30T10:07:45;17.23;;;12.45;;
69754;SDS011;57023;52.218;5.158;2023-08-30T10:10:12;15.60;;;11.93;;
69754;SDS011;57023;52.218;5.158;2023-08-30T10:12:37;14.07;;;10.80;;
69754;SDS011;57023;52.218;5.158;2023-08-30T10:15:04;12.05;;;9.23;;
69754;SDS011;57023;52.218;5.158;2023-08-30T10:17:33;13.20;;;9.15;;
69754;SDS011;57023;52.218;5.158;2023-08-30T10:19:59;11.52;;;7.05;;
69754;SDS011;57023;52.218;5.158;2023-08-30T10:22:36;9.25;;;7.18;;
69754;SDS011;57023;52.218;5.158;2023-08-30T10:25:12;9.55;;;6.28;;
69754;SDS011;57023;52.218;5.158;2023-08-30T10:27:43;9.85;;;5.85;;
69754;SDS011;57023;52.218;5.158;2023-08-30T10:30:10;7.32;;;5.15;;
69754;SDS011;57023;52.218;5.158;2023-08-30T10:32:43;8.20;;;4.80;;
69754;SDS011;57023;52.218;5.158;2023-08-30T10:35:13;9.90;;;5.15;;
69754;SDS011;57023;52.218;5.158;2023-08-30T10:37:39;9.02;;;4.43;;
69754;SDS011;57023;52.218;5.158;2023-08-30T10:40:05;8.40;;;4.03;;
69754;SDS011;57023;52.218;5.158;2023-08-30T10:42:32;8.88;;;4.82;;
69754;SDS011;57023;52.218;5.158;2023-08-30T10:45:02;16.10;;;4.40;;
69754;SDS011;57023;52.218;5.158;2023-08-30T10:47:30;9.30;;;3.70;;
69754;SDS011;57023;52.218;5.158;2023-08-30T10:50:00;8.90;;;3.75;;
69754;SDS011;57023;52.218;5.158;2023-08-30T10:52:29;7.63;;;3.63;;
69754;SDS011;57023;52.218;5.158;2023-08-30T10:55:04;7.43;;;3.60;;
69754;SDS011;57023;52.218;5.158;2023-08-30T10:57:36;9.25;;;3.70;;
69754;SDS011;57023;52.218;5.158;2023-08-30T11:02:34;10.05;;;4.00;;
69754;SDS011;57023;52.218;5.158;2023-08-30T11:05:05;8.95;;;4.00;;
69754;SDS011;57023;52.218;5.158;2023-08-30T11:07:31;8.27;;;4.05;;
69754;SDS011;57023;52.218;5.158;2023-08-30T11:09:57;7.90;;;4.87;;
69754;SDS011;57023;52.218;5.158;2023-08-30T11:12:23;7.55;;;4.38;;
69754;SDS011;57023;52.218;5.158;2023-08-30T11:14:50;9.68;;;4.65;;
69754;SDS011;57023;52.218;5.158;2023-08-30T11:17:16;9.05;;;4.80;;
69754;SDS011;57023;52.218;5.158;2023-08-30T11:19:42;12.37;;;4.40;;
69754;SDS011;57023;52.218;5.158;2023-08-30T11:22:08;9.07;;;4.30;;
69754;SDS011;57023;52.218;5.158;2023-08-30T11:24:34;12.25;;;4.43;;
69754;SDS011;57023;52.218;5.158;2023-08-30T11:26:59;7.30;;;3.57;;
69754;SDS011;57023;52.218;5.158;2023-08-30T11:29:26;8.95;;;3.80;;
69754;SDS011;57023;52.218;5.158;2023-08-30T11:31:51;9.40;;;3.88;;
69754;SDS011;57023;52.218;5.158;2023-08-30T11:34:19;11.07;;;3.63;;
69754;SDS011;57023;52.218;5.158;2023-08-30T11:36:45;11.23;;;3.85;;
69754;SDS011;57023;52.218;5.158;2023-08-30T11:41:37;8.37;;;3.40;;
69754;SDS011;57023;52.218;5.158;2023-08-30T11:44:02;9.77;;;3.67;;
69754;SDS011;57023;52.218;5.158;2023-08-30T11:46:31;7.60;;;3.60;;
69754;SDS011;57023;52.218;5.158;2023-08-30T11:48:59;10.93;;;3.88;;
69754;SDS011;57023;52.218;5.158;2023-08-30T11:51:25;8.63;;;2.87;;
69754;SDS011;57023;52.218;5.158;2023-08-30T11:53:50;8.50;;;3.20;;
69754;SDS011;57023;52.218;5.158;2023-08-30T11:56:16;10.30;;;3.20;;
69754;SDS011;57023;52.218;5.158;2023-08-30T11:58:41;8.13;;;3.23;;
69754;SDS011;57023;52.218;5.158;2023-08-30T12:03:33;11.33;;;3.10;;
69754;SDS011;57023;52.218;5.158;2023-08-30T12:05:59;8.33;;;3.00;;
69754;SDS011;57023;52.218;5.158;2023-08-30T12:08:25;8.47;;;2.90;;
69754;SDS011;57023;52.218;5.158;2023-08-30T12:13:35;8.80;;;3.58;;
69754;SDS011;57023;52.218;5.158;2023-08-30T12:16:01;8.23;;;2.90;;
69754;SDS011;57023;52.218;5.158;2023-08-30T12:18:27;8.18;;;3.08;;
69754;SDS011;57023;52.218;5.158;2023-08-30T12:20:54;7.78;;;3.00;;
69754;SDS011;57023;52.218;5.158;2023-08-30T12:23:24;10.00;;;3.30;;
69754;SDS011;57023;52.218;5.158;2023-08-30T12:26:31;6.70;;;2.90;;
69754;SDS011;57023;52.218;5.158;2023-08-30T12:28:42;8.93;;;2.97;;
69754;SDS011;57023;52.218;5.158;2023-08-30T12:31:09;9.93;;;2.97;;
69754;SDS011;57023;52.218;5.158;2023-08-30T12:33:35;7.65;;;2.72;;
69754;SDS011;57023;52.218;5.158;2023-08-30T12:36:01;9.90;;;3.03;;
69754;SDS011;57023;52.218;5.158;2023-08-30T12:38:26;10.90;;;3.10;;
69754;SDS011;57023;52.218;5.158;2023-08-30T12:40:54;6.43;;;2.83;;
69754;SDS011;57023;52.218;5.158;2023-08-30T12:43:20;7.07;;;3.33;;
69754;SDS011;57023;52.218;5.158;2023-08-30T12:45:46;6.80;;;2.70;;
69754;SDS011;57023;52.218;5.158;2023-08-30T12:48:12;7.38;;;2.97;;
69754;SDS011;57023;52.218;5.158;2023-08-30T12:50:43;9.43;;;2.97;;
69754;SDS011;57023;52.218;5.158;2023-08-30T12:53:13;8.32;;;3.15;;
69754;SDS011;57023;52.218;5.158;2023-08-30T12:55:41;7.00;;;2.97;;
69754;SDS011;57023;52.218;5.158;2023-08-30T12:58:07;8.20;;;2.70;;
69754;SDS011;57023;52.218;5.158;2023-08-30T13:00:33;6.72;;;2.97;;
69754;SDS011;57023;52.218;5.158;2023-08-30T13:02:59;6.57;;;2.43;;
69754;SDS011;57023;52.218;5.158;2023-08-30T13:05:25;7.83;;;2.80;;
69754;SDS011;57023;52.218;5.158;2023-08-30T13:07:50;7.57;;;3.00;;
69754;SDS011;57023;52.218;5.158;2023-08-30T13:10:16;8.03;;;2.57;;
69754;SDS011;57023;52.218;5.158;2023-08-30T13:12:42;7.17;;;2.60;;
69754;SDS011;57023;52.218;5.158;2023-08-30T13:15:07;7.87;;;2.80;;
69754;SDS011;57023;52.218;5.158;2023-08-30T13:17:33;5.97;;;2.33;;
69754;SDS011;57023;52.218;5.158;2023-08-30T13:19:58;8.20;;;2.60;;
69754;SDS011;57023;52.218;5.158;2023-08-30T13:22:24;7.30;;;2.92;;
69754;SDS011;57023;52.218;5.158;2023-08-30T13:24:50;7.43;;;2.95;;
69754;SDS011;57023;52.218;5.158;2023-08-30T13:27:17;7.83;;;3.20;;
69754;SDS011;57023;52.218;5.158;2023-08-30T13:29:42;7.03;;;2.88;;
69754;SDS011;57023;52.218;5.158;2023-08-30T13:32:07;5.82;;;2.70;;
69754;SDS011;57023;52.218;5.158;2023-08-30T13:34:33;8.75;;;2.95;;
69754;SDS011;57023;52.218;5.158;2023-08-30T13:37:01;5.38;;;2.53;;
69754;SDS011;57023;52.218;5.158;2023-08-30T13:39:26;6.15;;;2.40;;
69754;SDS011;57023;52.218;5.158;2023-08-30T13:41:51;5.82;;;2.60;;
69754;SDS011;57023;52.218;5.158;2023-08-30T13:44:17;7.35;;;2.80;;
69754;SDS011;57023;52.218;5.158;2023-08-30T13:46:43;6.05;;;2.90;;
69754;SDS011;57023;52.218;5.158;2023-08-30T13:49:08;8.50;;;3.13;;
69754;SDS011;57023;52.218;5.158;2023-08-30T13:51:34;7.00;;;2.60;;
69754;SDS011;57023;52.218;5.158;2023-08-30T13:53:59;7.47;;;3.03;;
69754;SDS011;57023;52.218;5.158;2023-08-30T13:56:25;7.13;;;2.80;;
69754;SDS011;57023;52.218;5.158;2023-08-30T13:58:50;7.45;;;2.85;;
69754;SDS011;57023;52.218;5.158;2023-08-30T14:01:16;7.00;;;3.35;;
69754;SDS011;57023;52.218;5.158;2023-08-30T14:03:41;7.93;;;2.78;;
69754;SDS011;57023;52.218;5.158;2023-08-30T14:06:07;5.88;;;2.70;;
69754;SDS011;57023;52.218;5.158;2023-08-30T14:08:32;5.70;;;2.08;;
69754;SDS011;57023;52.218;5.158;2023-08-30T14:10:58;5.45;;;2.00;;
69754;SDS011;57023;52.218;5.158;2023-08-30T14:13:23;3.57;;;2.00;;
69754;SDS011;57023;52.218;5.158;2023-08-30T14:15:49;4.73;;;1.90;;
69754;SDS011;57023;52.218;5.158;2023-08-30T14:18:14;4.33;;;1.73;;
69754;SDS011;57023;52.218;5.158;2023-08-30T14:20:43;4.97;;;1.77;;
69754;SDS011;57023;52.218;5.158;2023-08-30T14:23:08;4.15;;;1.92;;
69754;SDS011;57023;52.218;5.158;2023-08-30T14:25:33;3.73;;;1.90;;
69754;SDS011;57023;52.218;5.158;2023-08-30T14:27:59;4.23;;;2.10;;
69754;SDS011;57023;52.218;5.158;2023-08-30T14:30:25;5.25;;;2.03;;
69754;SDS011;57023;52.218;5.158;2023-08-30T14:32:51;5.87;;;2.10;;
69754;SDS011;57023;52.218;5.158;2023-08-30T14:35:17;5.75;;;2.30;;
69754;SDS011;57023;52.218;5.158;2023-08-30T14:37:45;5.32;;;2.10;;
69754;SDS011;57023;52.218;5.158;2023-08-30T14:45:02;4.28;;;2.05;;
69754;SDS011;57023;52.218;5.158;2023-08-30T14:47:28;7.57;;;2.30;;
69754;SDS011;57023;52.218;5.158;2023-08-30T14:49:55;7.00;;;2.20;;
69754;SDS011;57023;52.218;5.158;2023-08-30T14:52:20;6.78;;;2.20;;